createdAt,value
2022-08-04T00:01:05.834Z,3.40
2022-08-04T00:03:44.196Z,3.40
2022-08-04T00:06:24.331Z,2.97
2022-08-04T00:08:57.910Z,2.80
2022-08-04T00:11:31.431Z,3.20
2022-08-04T00:14:05.657Z,3.33
2022-08-04T00:16:38.725Z,3.13
2022-08-04T00:19:31.182Z,3.40
2022-08-04T00:22:05.926Z,2.90
2022-08-04T00:24:37.554Z,3.57
2022-08-04T00:27:08.405Z,2.80
2022-08-04T00:29:43.166Z,2.87
2022-08-04T00:32:12.608Z,2.70
2022-08-04T00:34:42.567Z,3.20
2022-08-04T00:37:13.205Z,3.40
2022-08-04T00:39:43.533Z,2.60
2022-08-04T00:42:58.158Z,2.50
2022-08-04T00:46:17.455Z,2.93
2022-08-04T00:49:04.181Z,3.07
2022-08-04T00:51:45.630Z,2.50
2022-08-04T00:54:35.541Z,2.70
2022-08-04T00:57:39.668Z,2.53
2022-08-04T01:00:11.069Z,3.00
2022-08-04T01:02:52.505Z,2.30
2022-08-04T01:05:27.489Z,2.87
2022-08-04T01:08:32.069Z,3.07
2022-08-04T01:11:10.646Z,3.00
2022-08-04T01:14:17.203Z,3.10
2022-08-04T01:16:51.357Z,3.57
2022-08-04T01:19:54.429Z,3.10
2022-08-04T01:22:59.143Z,3.17
2022-08-04T01:25:53.826Z,3.40
2022-08-04T01:28:47.860Z,2.70
2022-08-04T01:31:27.387Z,2.93
2022-08-04T01:34:04.005Z,3.10
2022-08-04T01:36:38.103Z,3.47
2022-08-04T01:39:27.671Z,2.87
2022-08-04T01:41:58.779Z,3.10
2022-08-04T01:44:29.937Z,3.70
2022-08-04T01:47:02.402Z,3.27
2022-08-04T01:49:40.064Z,3.60
2022-08-04T01:52:11.312Z,3.90
2022-08-04T01:54:43.179Z,3.43
2022-08-04T01:57:38.903Z,4.87
2022-08-04T02:00:02.478Z,4.03
2022-08-04T02:02:34.982Z,3.87
2022-08-04T02:05:03.743Z,3.63
2022-08-04T02:07:48.943Z,3.83
2022-08-04T02:10:28.437Z,3.90
2022-08-04T02:13:11.092Z,4.40
2022-08-04T02:15:52.572Z,4.13
2022-08-04T02:18:26.356Z,4.07
2022-08-04T02:21:01.985Z,4.43
2022-08-04T02:23:33.198Z,4.10
2022-08-04T02:26:04.735Z,4.33
2022-08-04T02:28:39.824Z,4.33
2022-08-04T02:31:29.242Z,4.40
2022-08-04T02:34:08.987Z,3.97
2022-08-04T02:36:39.468Z,3.70
2022-08-04T02:39:09.619Z,3.80
2022-08-04T02:41:40.367Z,3.40
2022-08-04T02:44:11.515Z,3.30
2022-08-04T02:46:43.380Z,3.60
2022-08-04T02:49:13.391Z,3.07
2022-08-04T02:51:44.190Z,3.23
2022-08-04T02:54:13.156Z,3.57
2022-08-04T02:56:45.914Z,3.03
2022-08-04T02:59:21.622Z,3.20
2022-08-04T03:01:57.645Z,3.50
2022-08-04T03:04:52.545Z,3.60
2022-08-04T03:07:33.030Z,3.07
2022-08-04T03:10:23.041Z,3.10
2022-08-04T03:13:29.212Z,3.80
2022-08-04T03:16:38.871Z,3.23
2022-08-04T03:19:44.240Z,3.33
2022-08-04T03:23:12.121Z,2.80
2022-08-04T03:26:02.624Z,3.20
2022-08-04T03:29:07.152Z,3.00
2022-08-04T03:32:01.662Z,3.17
2022-08-04T03:34:45.477Z,3.27
2022-08-04T03:37:36.704Z,3.30
2022-08-04T03:40:55.471Z,3.57
2022-08-04T03:44:07.955Z,3.50
2022-08-04T03:46:55.440Z,3.60
2022-08-04T03:50:10.618Z,3.30
2022-08-04T03:53:09.563Z,3.33
2022-08-04T03:56:27.738Z,3.63
2022-08-04T03:59:39.920Z,4.10
2022-08-04T04:02:45.852Z,3.67
2022-08-04T04:05:59.996Z,4.67
2022-08-04T04:08:54.476Z,3.47
2022-08-04T04:11:57.121Z,3.97
2022-08-04T04:14:58.137Z,3.43
2022-08-04T04:17:53.794Z,3.73
2022-08-04T04:20:42.309Z,4.27
2022-08-04T04:23:32.033Z,4.10
2022-08-04T04:26:23.039Z,4.33
2022-08-04T04:29:12.549Z,3.97
2022-08-04T04:31:59.274Z,3.90
2022-08-04T04:34:46.493Z,4.40
2022-08-04T04:37:27.617Z,3.67
2022-08-04T04:40:09.831Z,4.03
2022-08-04T04:42:59.238Z,3.60
2022-08-04T04:45:32.950Z,4.57
2022-08-04T04:48:25.660Z,4.23
2022-08-04T04:51:07.309Z,4.73
2022-08-04T04:53:46.274Z,3.67
2022-08-04T04:56:24.525Z,4.10
2022-08-04T04:58:55.941Z,4.07
2022-08-04T05:01:48.191Z,3.80
2022-08-04T05:04:48.266Z,4.20
2022-08-04T05:07:58.546Z,4.03
2022-08-04T05:10:48.344Z,3.83
2022-08-04T05:14:35.208Z,4.50
2022-08-04T05:16:28.578Z,3.53
2022-08-04T05:19:09.581Z,4.03
2022-08-04T05:21:44.203Z,3.87
2022-08-04T05:24:17.405Z,3.53
2022-08-04T05:26:57.102Z,3.77
2022-08-04T05:29:31.996Z,3.90
2022-08-04T05:32:08.646Z,3.57
2022-08-04T05:34:42.393Z,3.40
2022-08-04T05:37:16.754Z,4.10
2022-08-04T05:39:49.346Z,4.00
2022-08-04T05:42:18.099Z,3.47
2022-08-04T05:44:51.236Z,4.03
2022-08-04T05:47:22.837Z,3.20
2022-08-04T05:49:55.571Z,3.23
2022-08-04T05:52:31.811Z,2.87
2022-08-04T05:55:01.805Z,3.43
2022-08-04T05:57:31.647Z,3.00
2022-08-04T06:00:25.214Z,3.10
2022-08-04T06:02:55.938Z,3.37
2022-08-04T06:05:25.359Z,3.13
2022-08-04T06:08:11.796Z,3.20
2022-08-04T06:10:43.899Z,3.17
2022-08-04T06:13:48.958Z,3.53
2022-08-04T06:16:08.092Z,3.13
2022-08-04T06:20:03.109Z,2.67
2022-08-04T06:21:46.421Z,3.30
2022-08-04T06:24:19.007Z,3.10
2022-08-04T06:26:50.861Z,3.33
2022-08-04T06:29:25.639Z,2.80
2022-08-04T06:32:31.058Z,3.37
2022-08-04T06:34:53.913Z,3.67
2022-08-04T06:37:42.808Z,3.07
2022-08-04T06:40:31.867Z,3.53
2022-08-04T06:43:03.126Z,3.00
2022-08-04T06:45:34.881Z,3.93
2022-08-04T06:48:04.981Z,3.53
2022-08-04T06:51:32.926Z,3.13
2022-08-04T06:53:26.802Z,3.27
2022-08-04T06:55:56.464Z,3.60
2022-08-04T06:58:27.753Z,3.50
2022-08-04T07:01:02.207Z,3.40
2022-08-04T07:03:32.472Z,3.50
2022-08-04T07:06:06.338Z,3.40
2022-08-04T07:08:43.868Z,4.20
2022-08-04T07:11:14.281Z,3.60
2022-08-04T07:13:45.562Z,3.80
2022-08-04T07:16:16.712Z,3.00
2022-08-04T07:18:45.573Z,3.22
2022-08-04T07:21:22.351Z,3.40
2022-08-04T07:23:51.295Z,3.47
2022-08-04T07:26:20.402Z,3.20
2022-08-04T07:28:49.429Z,3.70
2022-08-04T07:31:33.221Z,3.10
2022-08-04T07:34:17.262Z,4.38
2022-08-04T07:36:55.621Z,3.08
2022-08-04T07:39:28.060Z,3.40
2022-08-04T07:42:01.478Z,3.43
2022-08-04T07:44:32.205Z,3.53
2022-08-04T07:47:01.638Z,3.00
2022-08-04T07:49:56.510Z,3.30
2022-08-04T07:52:23.067Z,3.40
2022-08-04T07:54:52.867Z,3.15
2022-08-04T07:57:40.194Z,2.60
2022-08-04T08:00:12.141Z,3.10
2022-08-04T08:02:41.070Z,2.90
2022-08-04T08:05:16.866Z,2.90
2022-08-04T08:07:50.876Z,2.75
2022-08-04T08:10:24.901Z,3.20
2022-08-04T08:12:54.630Z,2.85
2022-08-04T08:15:23.927Z,3.30
2022-08-04T08:18:00.083Z,3.05
2022-08-04T08:20:33.105Z,2.97
2022-08-04T08:23:04.886Z,2.63
2022-08-04T08:25:34.707Z,3.15
2022-08-04T08:28:05.223Z,3.50
2022-08-04T08:30:34.865Z,4.00
2022-08-04T08:33:07.180Z,3.60
2022-08-04T08:35:54.169Z,3.38
2022-08-04T08:38:42.216Z,3.03
2022-08-04T08:41:51.860Z,3.58
2022-08-04T08:44:57.967Z,3.60
2022-08-04T08:48:05.157Z,3.70
2022-08-04T08:50:54.460Z,3.30
2022-08-04T08:53:34.202Z,3.53
2022-08-04T08:56:30.996Z,3.83
2022-08-04T08:59:28.934Z,3.15
2022-08-04T09:02:22.084Z,3.03
2022-08-04T09:05:09.749Z,3.10
2022-08-04T09:08:03.407Z,2.95
2022-08-04T09:10:42.556Z,3.20
2022-08-04T09:13:21.454Z,2.60
2022-08-04T09:15:59.146Z,2.90
2022-08-04T09:18:33.812Z,2.50
2022-08-04T09:21:12.559Z,2.92
2022-08-04T09:23:53.171Z,2.78
2022-08-04T09:26:31.006Z,2.58
2022-08-04T09:29:20.877Z,2.47
2022-08-04T09:32:07.042Z,2.75
2022-08-04T09:34:45.744Z,3.50
2022-08-04T09:37:22.454Z,3.13
2022-08-04T09:40:04.667Z,3.25
2022-08-04T09:42:50.126Z,3.60
2022-08-04T09:45:26.730Z,3.38
2022-08-04T09:48:06.971Z,2.90
2022-08-04T09:50:39.033Z,3.20
2022-08-04T09:53:38.731Z,3.42
2022-08-04T09:56:12.980Z,3.20
2022-08-04T09:58:52.666Z,3.17
2022-08-04T10:01:24.264Z,3.25
2022-08-04T10:03:56.453Z,2.40
2022-08-04T10:07:03.172Z,2.35
2022-08-04T10:09:53.192Z,2.60
2022-08-04T10:12:38.072Z,2.80
2022-08-04T10:15:12.667Z,2.83
2022-08-04T10:17:56.016Z,2.97
2022-08-04T10:20:45.931Z,3.08
2022-08-04T10:23:25.740Z,2.33
2022-08-04T10:26:08.440Z,2.45
2022-08-04T10:28:44.888Z,3.55
2022-08-04T10:31:20.689Z,2.72
2022-08-04T10:33:56.018Z,2.60
2022-08-04T10:36:28.790Z,2.42
2022-08-04T10:39:03.404Z,2.25
2022-08-04T10:41:39.812Z,2.40
2022-08-04T10:44:19.142Z,2.85
2022-08-04T10:46:54.179Z,2.53
2022-08-04T10:49:35.654Z,2.78
2022-08-04T10:52:09.982Z,3.33
2022-08-04T10:54:48.428Z,3.50
2022-08-04T10:57:22.685Z,3.08
2022-08-04T11:00:03.230Z,3.40
2022-08-04T11:02:42.889Z,3.78
2022-08-04T11:05:23.011Z,3.45
2022-08-04T11:07:55.540Z,3.97
2022-08-04T11:10:27.284Z,3.80
2022-08-04T11:13:02.087Z,4.40
2022-08-04T11:15:38.059Z,4.82
2022-08-04T11:18:17.066Z,4.00
2022-08-04T11:20:54.274Z,5.53
2022-08-04T11:23:28.248Z,5.75
2022-08-04T11:26:02.914Z,6.13
2022-08-04T11:28:44.296Z,5.18
2022-08-04T11:31:19.219Z,5.07
2022-08-04T11:33:57.563Z,4.53
2022-08-04T11:36:35.823Z,4.68
2022-08-04T11:39:11.556Z,5.38
2022-08-04T11:41:48.829Z,4.28
2022-08-04T11:44:25.472Z,4.78
2022-08-04T11:46:58.678Z,4.22
2022-08-04T11:49:56.111Z,4.03
2022-08-04T11:52:27.669Z,4.97
2022-08-04T11:54:58.377Z,4.53
2022-08-04T11:57:36.011Z,4.18
2022-08-04T12:00:10.752Z,4.10
2022-08-04T12:03:00.090Z,3.85
2022-08-04T12:05:36.803Z,4.05
2022-08-04T12:08:35.573Z,3.67
2022-08-04T12:11:15.154Z,3.70
2022-08-04T12:13:51.629Z,3.72
2022-08-04T12:16:30.162Z,3.50
2022-08-04T12:19:03.277Z,3.72
2022-08-04T12:21:43.588Z,3.92
2022-08-04T12:24:25.010Z,3.60
2022-08-04T12:26:57.613Z,3.45
2022-08-04T12:29:32.586Z,3.63
2022-08-04T12:32:08.974Z,3.53
2022-08-04T12:34:43.265Z,3.95
2022-08-04T12:37:21.966Z,3.72
2022-08-04T12:40:21.726Z,3.33
2022-08-04T12:42:56.167Z,3.50
2022-08-04T12:45:35.513Z,2.53
2022-08-04T12:48:07.700Z,2.90
2022-08-04T12:50:37.688Z,2.53
2022-08-04T12:53:17.008Z,3.08
2022-08-04T12:56:02.566Z,3.10
2022-08-04T12:58:43.542Z,2.88
2022-08-04T13:02:07.488Z,2.80
2022-08-04T13:04:13.124Z,3.70
2022-08-04T13:06:43.335Z,2.55
2022-08-04T13:09:26.563Z,3.22
2022-08-04T13:12:01.923Z,2.60
2022-08-04T13:14:39.413Z,3.05
2022-08-04T13:17:08.877Z,2.90
2022-08-04T13:19:41.202Z,3.08
2022-08-04T13:22:12.089Z,3.00
2022-08-04T13:25:18.114Z,2.70
2022-08-04T13:27:43.518Z,3.15
2022-08-04T13:30:23.089Z,3.05
2022-08-04T13:32:56.779Z,2.72
2022-08-04T13:35:55.217Z,3.20
2022-08-04T13:38:18.991Z,3.10
2022-08-04T13:40:50.659Z,3.78
2022-08-04T13:44:15.841Z,2.80
2022-08-04T13:46:27.928Z,2.80
2022-08-04T13:51:58.277Z,2.92
2022-08-04T13:54:30.294Z,3.10
2022-08-04T13:57:03.821Z,3.65
2022-08-04T13:59:39.047Z,3.30
2022-08-04T14:02:22.616Z,3.83
2022-08-04T14:04:57.436Z,4.43
2022-08-04T14:07:29.695Z,4.15
2022-08-04T14:10:03.036Z,5.13
2022-08-04T14:12:39.039Z,4.82
2022-08-04T14:16:01.432Z,4.47
2022-08-04T14:18:27.699Z,3.85
2022-08-04T14:21:08.500Z,4.32
2022-08-04T14:23:47.192Z,4.53
2022-08-04T14:26:31.322Z,4.18
2022-08-04T14:29:26.697Z,6.75
2022-08-04T14:32:05.560Z,6.63
2022-08-04T14:34:41.890Z,6.93
2022-08-04T14:37:17.253Z,6.93
2022-08-04T14:40:19.293Z,7.65
2022-08-04T14:42:42.647Z,7.25
2022-08-04T14:45:13.970Z,8.00
2022-08-04T14:47:52.014Z,7.43
2022-08-04T14:50:34.180Z,7.38
2022-08-04T14:53:08.240Z,6.45
2022-08-04T14:55:37.725Z,5.60
2022-08-04T14:58:36.510Z,6.47
2022-08-04T15:00:59.827Z,6.32
2022-08-04T15:03:31.065Z,6.65
2022-08-04T15:06:09.417Z,7.50
2022-08-04T15:08:46.901Z,6.00
2022-08-04T15:11:23.084Z,5.78
2022-08-04T15:13:52.897Z,5.80
2022-08-04T15:16:24.244Z,5.25
2022-08-04T15:18:54.725Z,3.97
2022-08-04T15:21:28.397Z,4.00
2022-08-04T15:23:58.275Z,4.82
2022-08-04T15:26:32.710Z,4.35
2022-08-04T15:29:14.481Z,4.07
2022-08-04T15:32:05.739Z,3.60
2022-08-04T15:34:48.693Z,3.88
2022-08-04T15:37:24.321Z,4.43
2022-08-04T15:39:57.555Z,4.43
2022-08-04T15:42:34.359Z,4.13
2022-08-04T15:45:18.284Z,4.35
2022-08-04T15:48:33.378Z,4.45
2022-08-04T15:51:14.695Z,3.67
2022-08-04T15:54:28.077Z,3.60
2022-08-04T15:57:03.476Z,4.93
2022-08-04T16:00:02.458Z,4.78
2022-08-04T16:02:43.777Z,5.43
2022-08-04T16:05:35.835Z,4.43
2022-08-04T16:08:16.026Z,4.18
2022-08-04T16:10:51.446Z,5.05
2022-08-04T16:13:22.749Z,4.90
2022-08-04T16:15:56.444Z,4.03
2022-08-04T16:18:44.128Z,4.75
2022-08-04T16:21:26.116Z,4.53
2022-08-04T16:24:10.542Z,4.32
2022-08-04T16:26:54.939Z,3.97
2022-08-04T16:29:46.963Z,3.70
2022-08-04T16:32:19.032Z,3.80
2022-08-04T16:34:55.458Z,4.00
2022-08-04T16:37:37.862Z,3.25
2022-08-04T16:40:35.315Z,3.75
2022-08-04T16:43:07.795Z,3.95
2022-08-04T16:45:44.999Z,2.88
2022-08-04T16:48:15.063Z,2.97
2022-08-04T16:50:56.604Z,2.70
2022-08-04T16:53:53.432Z,3.25
2022-08-04T16:56:19.409Z,2.50
2022-08-04T16:58:54.395Z,2.00
2022-08-04T17:01:33.115Z,2.10
2022-08-04T17:04:07.813Z,2.10
2022-08-04T17:06:38.390Z,2.38
2022-08-04T17:09:12.377Z,2.55
2022-08-04T17:11:42.310Z,3.10
2022-08-04T17:14:11.756Z,2.97
2022-08-04T17:16:42.981Z,3.17
2022-08-04T17:19:19.969Z,2.80
2022-08-04T17:22:02.265Z,3.53
2022-08-04T17:24:33.684Z,3.28
2022-08-04T17:27:04.284Z,3.42
2022-08-04T17:29:50.979Z,3.22
2022-08-04T17:32:23.034Z,3.63
2022-08-04T17:34:54.458Z,3.50
2022-08-04T17:37:38.776Z,3.70
2022-08-04T17:40:18.525Z,2.88
2022-08-04T17:42:52.123Z,2.88
2022-08-04T17:45:50.745Z,3.05
2022-08-04T17:48:24.880Z,3.22
2022-08-04T17:50:54.473Z,3.28
2022-08-04T17:54:02.175Z,3.17
2022-08-04T17:56:33.314Z,3.38
2022-08-04T17:59:55.786Z,3.78
2022-08-04T18:02:09.094Z,3.28
2022-08-04T18:05:05.932Z,3.08
2022-08-04T18:08:40.082Z,3.00
2022-08-04T18:10:52.302Z,3.42
2022-08-04T18:13:28.131Z,3.15
2022-08-04T18:16:04.566Z,3.17
2022-08-04T18:18:33.347Z,3.45
2022-08-04T18:21:03.315Z,4.05
2022-08-04T18:23:33.769Z,3.40
2022-08-04T18:26:03.657Z,3.03
2022-08-04T18:28:34.105Z,2.90
2022-08-04T18:31:03.112Z,2.80
2022-08-04T18:39:16.095Z,3.08
2022-08-04T18:42:02.438Z,2.72
2022-08-04T18:44:51.829Z,2.80
2022-08-04T18:47:23.334Z,3.00
2022-08-04T18:51:01.541Z,2.83
2022-08-04T18:52:48.871Z,2.70
2022-08-04T18:55:58.038Z,2.80
2022-08-04T18:58:12.690Z,2.97
2022-08-04T19:00:46.118Z,3.00
2022-08-04T19:03:22.750Z,2.72
2022-08-04T19:05:52.255Z,3.25
2022-08-04T19:08:34.954Z,2.57
2022-08-04T19:11:38.229Z,3.00
2022-08-04T19:13:59.403Z,2.95
2022-08-04T19:16:32.343Z,2.63
2022-08-04T19:19:05.559Z,2.43
2022-08-04T19:21:59.321Z,2.70
2022-08-04T19:24:32.642Z,2.67
2022-08-04T19:27:06.813Z,2.63
2022-08-04T19:29:41.418Z,2.90
2022-08-04T19:32:16.428Z,2.80
2022-08-04T19:34:47.559Z,2.60
2022-08-04T19:37:57.409Z,3.27
2022-08-04T19:40:09.572Z,2.80
2022-08-04T19:42:40.790Z,2.50
2022-08-04T19:45:16.180Z,2.57
2022-08-04T19:48:17.761Z,2.60
2022-08-04T19:50:36.581Z,3.00
2022-08-04T19:53:19.594Z,3.10
2022-08-04T19:55:50.389Z,3.13
2022-08-04T20:01:31.590Z,2.10
2022-08-04T20:04:09.775Z,2.70
2022-08-04T20:06:39.756Z,2.63
2022-08-04T20:09:25.520Z,2.23
2022-08-04T20:11:57.206Z,2.07
2022-08-04T20:14:32.539Z,2.13
2022-08-04T20:17:10.352Z,2.20
2022-08-04T20:19:42.109Z,2.40
2022-08-04T20:22:52.055Z,2.43
2022-08-04T20:25:35.703Z,2.20
2022-08-04T20:28:04.340Z,2.03
2022-08-04T20:30:35.771Z,2.43
2022-08-04T20:33:06.871Z,2.00
2022-08-04T20:36:00.870Z,2.30
2022-08-04T20:38:33.505Z,3.03
2022-08-04T20:41:03.361Z,2.70
2022-08-04T20:43:32.180Z,2.20
2022-08-04T20:46:03.179Z,2.37
2022-08-04T20:48:47.563Z,2.17
2022-08-04T20:51:25.880Z,1.80
2022-08-04T20:54:01.693Z,2.07
2022-08-04T20:56:31.744Z,2.30
2022-08-04T20:59:01.029Z,2.00
2022-08-04T21:01:30.701Z,2.00
2022-08-04T21:04:27.223Z,2.20
2022-08-04T21:06:59.148Z,2.47
2022-08-04T21:09:38.597Z,2.20
2022-08-04T21:12:27.238Z,2.30
2022-08-04T21:15:01.167Z,2.10
2022-08-04T21:17:59.074Z,2.33
2022-08-04T21:20:27.467Z,2.43
2022-08-04T21:23:01.608Z,2.30
2022-08-04T21:28:23.133Z,2.10
2022-08-04T21:30:55.895Z,3.13
2022-08-04T21:33:28.202Z,2.77
2022-08-04T21:36:19.866Z,3.40
2022-08-04T21:38:51.764Z,3.57
2022-08-04T21:41:26.892Z,3.63
2022-08-04T21:43:58.886Z,3.70
2022-08-04T21:46:30.270Z,4.07
2022-08-04T21:49:00.626Z,4.20
2022-08-04T21:51:57.824Z,3.83
2022-08-04T21:54:26.375Z,4.57
2022-08-04T21:56:55.576Z,4.67
2022-08-04T21:59:31.066Z,4.63
2022-08-04T22:02:02.048Z,5.10
2022-08-04T22:04:31.834Z,4.93
2022-08-04T22:07:03.122Z,5.13
2022-08-04T22:09:40.883Z,5.70
2022-08-04T22:12:12.467Z,5.43
2022-08-04T22:14:42.061Z,5.67
2022-08-04T22:17:19.811Z,5.90
2022-08-04T22:22:39.273Z,5.73
2022-08-04T22:28:03.496Z,5.93
2022-08-04T22:30:36.580Z,6.00
2022-08-04T22:33:08.520Z,6.50
2022-08-04T22:35:49.027Z,6.23
2022-08-04T22:38:25.318Z,6.43
2022-08-04T22:41:04.090Z,5.67
2022-08-04T22:43:34.694Z,7.87
2022-08-04T22:46:06.262Z,6.83
2022-08-04T22:48:37.005Z,7.87
2022-08-04T22:51:07.277Z,7.47
2022-08-04T22:53:36.522Z,6.70
2022-08-04T22:56:10.770Z,6.53
2022-08-04T22:58:45.524Z,6.83
2022-08-04T23:01:15.922Z,6.20
2022-08-04T23:03:55.582Z,7.07
2022-08-04T23:06:28.475Z,7.10
2022-08-04T23:08:59.315Z,6.50
2022-08-04T23:11:34.710Z,6.90
2022-08-04T23:14:13.477Z,6.57
2022-08-04T23:16:42.285Z,7.17
2022-08-04T23:19:15.206Z,6.63
2022-08-04T23:21:47.602Z,6.83
2022-08-04T23:24:30.272Z,7.03
2022-08-04T23:27:00.789Z,7.17
2022-08-04T23:29:54.410Z,6.57
2022-08-04T23:32:20.278Z,7.10
2022-08-04T23:34:49.391Z,7.60
2022-08-04T23:37:18.419Z,7.80
2022-08-04T23:40:14.650Z,7.80
2022-08-04T23:42:36.911Z,8.43
2022-08-04T23:45:12.356Z,8.27
2022-08-04T23:48:14.765Z,8.07
2022-08-04T23:50:41.868Z,7.77
2022-08-04T23:53:11.264Z,7.50
2022-08-04T23:55:47.758Z,7.20
2022-08-04T23:58:21.948Z,7.40
